Terminal Aerodrome Forecast
Issued by NWS

Home | Current Version | Previous Version | Text Only | Print | Product List | Glossary On
Versions: 1 2 3 4 5 6 7 8 9 10 11 12 13 14
125
FTUS42 TJSJ 131749
TAFJPS
TAF
TJPS 131749Z 1318/1418 15012G18KT P6SM VCSH SCT025 SCT030 SCT060
     FM132330 05007KT P6SM FEW030 FEW060
     FM141350 14009KT P6SM SCT030 SCT060
      AMD NOT SKED TIL 140300=

USA.gov is the U.S. government's official web portal to all federal, state and local government web resources and services.